Aérodrome :
LOGIN :

S'inscrire | Disclaimer

   EN    FR    IT 

 










Légende :    VFR   VFR Marginal   IFR   IFR Intensif   IFR Très Intensif
Visi : 
Plafond : 
>= 8 km
>= 3000ft
5 à 8 km
1000 à 3000 ft
1500m à 5 km
500 à 1000 ft
800 à 1500m
200 à 500 ft
< 800m
< 200 ft
Symboles :   Orages  Brouillard  Fortes neiges  Fortes précipitations  Vent > 20 kt
SIGMETs :   Divers  Orages  Givrage  Turbulence  Onde Orograph.  Cendres Volcan.







- Altitude de l'aérodrome : 1860 ft
- Code IATA : GRX


LEGR - Granada

DERNIER METAR :
  • 211730Z 16009KT 100V200 CAVOK 16/01 Q1027

METARs EXPIRÉS :
  • 211700Z 16009KT CAVOK 17/01 Q1027
  • 211630Z 16008KT CAVOK 18/02 Q1027
  • 211600Z 17008KT 140V200 CAVOK 19/02 Q1026
  • 211530Z 15010KT CAVOK 18/02 Q1026
  • 211500Z 11008KT 080V170 CAVOK 18/02 Q1026

TAF TAF LEGR
Valide du 21 à 15h jusqu'au 22 à 15h UTC


211400Z 2115/2215 15010KT CAVOK TX19/2115Z TN00/2207Z
BECMG 2118/2120 VRB03KT
Pas de NOTAMs connus pour ce terrain.



MET'MAP, la Météo Aéronautique d'un coup d'oeil ! - Copyright ORBIFLY Décembre 2007 - Disclaimer

ORBIFLY MET'MAP TEAM :

Programmation & Développement : Alexandra Zaïnal
Conception & Développement : Baudouin d'Aumeries
Co-Programmation & Développement : Marc-Olivier Méhu
Soutien technique & logistique : Manuel Goepfert

Contact : metmap@orbifly.com




SOURCES & CREDITS :

   NOAA